Terminal Aerodrome Forecast
Issued by NWS Rapid City, SD

Home | Current Version | Previous Version | Text Only | Print | Product List | Glossary On
Versions: 1 2 3 4 5 6 7 8 9 10 11 12 13 14
000
FTUS43 KUNR 020551
TAFRAP
TAF
KRAP 020551Z 0206/0306 30012KT 2SM TSRA BKN050CB OVC100
     FM020700 32005KT P6SM BKN100
     FM021500 35012KT P6SM SCT100=

USA.gov is the U.S. government's official web portal to all federal, state and local government web resources and services.